createdAt,value
2023-08-07T00:00:00.084Z,58.62
2023-08-07T00:02:27.446Z,58.62
2023-08-07T00:04:54.673Z,58.80
2023-08-07T00:07:21.767Z,58.73
2023-08-07T00:09:49.116Z,58.88
2023-08-07T00:12:16.236Z,58.81
2023-08-07T00:14:43.414Z,58.93
2023-08-07T00:17:10.438Z,58.90
2023-08-07T00:19:37.451Z,58.97
2023-08-07T00:22:04.603Z,59.07
2023-08-07T00:24:32.067Z,59.01
2023-08-07T00:26:59.424Z,59.03
2023-08-07T00:29:26.481Z,58.99
2023-08-07T00:31:53.787Z,59.22
2023-08-07T00:34:20.924Z,59.12
2023-08-07T00:36:48.552Z,59.11
2023-08-07T00:39:15.503Z,59.33
2023-08-07T00:41:42.619Z,59.31
2023-08-07T00:44:09.857Z,59.38
2023-08-07T00:46:37.929Z,59.36
2023-08-07T00:49:05.221Z,59.42
2023-08-07T00:51:32.734Z,59.41
2023-08-07T00:54:01.962Z,59.54
2023-08-07T00:56:29.667Z,59.62
2023-08-07T00:58:56.770Z,59.78
2023-08-07T01:01:24.613Z,59.82
2023-08-07T01:03:51.900Z,59.93
2023-08-07T01:06:18.947Z,60.11
2023-08-07T01:08:47.184Z,60.03
2023-08-07T01:11:30.845Z,60.62
2023-08-07T01:14:02.408Z,59.90
2023-08-07T01:16:36.880Z,60.29
2023-08-07T01:19:05.720Z,60.20
2023-08-07T01:21:34.095Z,60.68
2023-08-07T01:24:01.185Z,60.42
2023-08-07T01:26:28.305Z,60.80
2023-08-07T01:29:33.399Z,61.39
2023-08-07T01:32:06.450Z,60.85
2023-08-07T01:34:35.765Z,61.02
2023-08-07T01:37:04.691Z,61.29
2023-08-07T01:39:32.780Z,61.13
2023-08-07T01:42:01.994Z,61.20
2023-08-07T01:44:28.968Z,61.29
2023-08-07T01:46:56.239Z,61.51
2023-08-07T01:49:23.566Z,61.30
2023-08-07T01:51:50.569Z,61.56
2023-08-07T01:54:17.646Z,61.62
2023-08-07T01:56:44.602Z,61.80
2023-08-07T01:59:11.751Z,61.90
2023-08-07T02:01:38.873Z,61.78
2023-08-07T02:04:05.862Z,61.78
2023-08-07T02:06:32.996Z,61.90
2023-08-07T02:09:00.112Z,61.67
2023-08-07T02:11:27.150Z,61.85
2023-08-07T02:13:56.241Z,61.90
2023-08-07T02:16:23.406Z,61.77
2023-08-07T02:18:50.628Z,61.87
2023-08-07T02:21:37.629Z,61.89
2023-08-07T02:24:04.920Z,61.76
2023-08-07T02:26:32.447Z,61.79
2023-08-07T02:29:00.244Z,61.58
2023-08-07T02:31:27.242Z,61.68
2023-08-07T02:33:55.234Z,61.53
2023-08-07T02:36:22.409Z,61.53
2023-08-07T02:38:49.467Z,61.51
2023-08-07T02:41:16.519Z,61.48
2023-08-07T02:43:44.217Z,61.59
2023-08-07T02:46:11.595Z,61.53
2023-08-07T02:48:38.622Z,61.51
2023-08-07T02:51:05.934Z,61.56
2023-08-07T02:53:33.286Z,61.33
2023-08-07T02:56:00.448Z,61.39
2023-08-07T02:58:27.634Z,61.38
2023-08-07T03:00:54.959Z,61.26
2023-08-07T03:03:22.110Z,61.35
2023-08-07T03:05:51.455Z,61.35
2023-08-07T03:08:18.890Z,61.12
2023-08-07T03:10:57.063Z,61.19
2023-08-07T03:13:26.934Z,60.89
2023-08-07T03:16:07.450Z,61.30
2023-08-07T03:18:35.707Z,60.71
2023-08-07T03:21:03.185Z,60.73
2023-08-07T03:23:30.438Z,60.58
2023-08-07T03:28:41.954Z,60.45
2023-08-07T03:31:09.860Z,60.33
2023-08-07T03:33:38.009Z,60.17
2023-08-07T03:36:05.520Z,59.98
2023-08-07T03:38:33.608Z,60.02
2023-08-07T03:41:01.034Z,59.92
2023-08-07T03:43:29.701Z,59.78
2023-08-07T03:46:02.960Z,59.58
2023-08-07T03:48:32.344Z,59.93
2023-08-07T03:51:05.917Z,59.49
2023-08-07T03:53:38.586Z,59.15
2023-08-07T03:56:06.005Z,58.96
2023-08-07T03:58:34.346Z,58.77
2023-08-07T04:01:01.632Z,58.74
2023-08-07T04:03:28.632Z,58.56
2023-08-07T04:05:56.571Z,58.40
2023-08-07T04:08:24.154Z,58.27
2023-08-07T04:11:06.741Z,58.26
2023-08-07T04:13:36.202Z,57.83
2023-08-07T04:16:05.878Z,57.82
2023-08-07T04:18:36.476Z,57.64
2023-08-07T04:21:04.784Z,57.46
2023-08-07T04:23:33.332Z,57.22
2023-08-07T04:26:00.678Z,57.17
2023-08-07T04:28:30.495Z,56.90
2023-08-07T04:30:57.538Z,56.78
2023-08-07T04:33:24.629Z,56.64
2023-08-07T04:35:51.771Z,56.70
2023-08-07T04:38:19.206Z,56.45
2023-08-07T04:40:50.583Z,56.14
2023-08-07T04:43:18.878Z,56.13
2023-08-07T04:45:48.580Z,56.03
2023-08-07T04:48:16.149Z,55.70
2023-08-07T04:50:43.415Z,55.38
2023-08-07T04:53:10.502Z,55.15
2023-08-07T04:55:37.565Z,55.24
2023-08-07T04:58:04.820Z,55.09
2023-08-07T05:00:32.034Z,54.58
2023-08-07T05:02:59.874Z,54.66
2023-08-07T05:05:27.081Z,54.07
2023-08-07T05:07:56.166Z,54.14
2023-08-07T05:10:23.237Z,53.56
2023-08-07T05:12:56.212Z,53.60
2023-08-07T05:15:25.046Z,53.29
2023-08-07T05:17:53.022Z,53.28
2023-08-07T05:20:20.116Z,52.87
2023-08-07T05:22:47.204Z,52.70
2023-08-07T05:25:17.058Z,52.64
2023-08-07T05:27:46.946Z,52.63
2023-08-07T05:30:15.286Z,52.36
2023-08-07T05:32:42.501Z,52.22
2023-08-07T05:35:10.174Z,52.00
2023-08-07T05:37:37.986Z,52.06
2023-08-07T05:40:06.464Z,51.80
2023-08-07T05:42:33.563Z,51.64
2023-08-07T05:45:00.512Z,51.55
2023-08-07T05:47:27.687Z,51.28
2023-08-07T05:49:55.045Z,51.19
2023-08-07T05:52:22.318Z,51.32
2023-08-07T05:54:49.276Z,50.92
2023-08-07T05:57:16.584Z,50.53
2023-08-07T05:59:43.635Z,50.50
2023-08-07T06:02:12.985Z,50.49
2023-08-07T06:04:40.395Z,50.04
2023-08-07T06:07:08.202Z,50.08
2023-08-07T06:09:36.647Z,50.02
2023-08-07T06:12:03.850Z,49.66
2023-08-07T06:14:31.374Z,49.55
2023-08-07T06:16:59.404Z,49.87
2023-08-07T06:19:32.020Z,49.85
2023-08-07T06:22:00.300Z,49.61
2023-08-07T06:24:27.624Z,49.53
2023-08-07T06:26:54.588Z,49.11
2023-08-07T06:29:21.880Z,49.24
2023-08-07T06:31:49.021Z,48.87
2023-08-07T06:34:16.204Z,48.69
2023-08-07T06:36:43.265Z,48.74
2023-08-07T06:39:10.634Z,48.66
2023-08-07T06:41:41.567Z,48.51
2023-08-07T06:44:09.596Z,48.52
2023-08-07T06:46:36.638Z,48.38
2023-08-07T06:49:03.652Z,48.20
2023-08-07T06:51:30.992Z,48.23
2023-08-07T06:53:58.001Z,48.18
2023-08-07T06:56:25.079Z,48.14
2023-08-07T06:58:52.094Z,48.16
2023-08-07T07:01:19.205Z,47.91
2023-08-07T07:03:48.245Z,47.88
2023-08-07T07:06:15.591Z,47.92
2023-08-07T07:08:42.686Z,48.09
2023-08-07T07:11:10.002Z,47.81
2023-08-07T07:13:37.680Z,47.34
2023-08-07T07:16:04.891Z,47.43
2023-08-07T07:18:32.392Z,47.23
2023-08-07T07:21:00.124Z,47.16
2023-08-07T07:23:28.599Z,46.95
2023-08-07T07:25:56.306Z,46.78
2023-08-07T07:28:23.640Z,47.06
2023-08-07T07:30:51.288Z,46.73
2023-08-07T07:33:18.415Z,46.59
2023-08-07T07:35:45.358Z,46.64
2023-08-07T07:38:12.538Z,46.23
2023-08-07T07:40:39.730Z,46.24
2023-08-07T07:43:06.684Z,46.16
2023-08-07T07:45:36.833Z,45.88
2023-08-07T07:48:05.260Z,46.08
2023-08-07T07:50:32.401Z,45.98
2023-08-07T07:52:59.563Z,45.72
2023-08-07T07:55:27.288Z,45.72
2023-08-07T07:57:55.897Z,45.10
2023-08-07T08:00:30.026Z,45.15
2023-08-07T08:02:57.155Z,45.12
2023-08-07T08:05:24.629Z,44.90
2023-08-07T08:07:51.629Z,44.75
2023-08-07T08:10:18.607Z,44.59
2023-08-07T08:12:46.265Z,44.40
2023-08-07T08:15:13.578Z,44.57
2023-08-07T08:17:41.443Z,44.28
2023-08-07T08:20:09.406Z,44.10
2023-08-07T08:22:36.949Z,44.10
2023-08-07T08:25:05.868Z,44.15
2023-08-07T08:27:33.121Z,43.85
2023-08-07T08:30:00.400Z,43.90
2023-08-07T08:32:27.617Z,43.69
2023-08-07T08:34:54.745Z,43.49
2023-08-07T08:37:21.750Z,43.52
2023-08-07T08:39:48.961Z,43.50
2023-08-07T08:42:16.990Z,43.59
2023-08-07T08:44:52.499Z,43.09
2023-08-07T08:47:19.808Z,43.30
2023-08-07T08:50:07.606Z,42.94
2023-08-07T08:52:36.747Z,42.96
2023-08-07T08:55:04.187Z,42.73
2023-08-07T08:57:31.624Z,42.74
2023-08-07T08:59:59.078Z,42.70
2023-08-07T09:02:26.858Z,42.76
2023-08-07T09:04:53.849Z,42.50
2023-08-07T09:07:22.044Z,42.47
2023-08-07T09:09:52.549Z,42.16
2023-08-07T09:12:27.024Z,41.59
2023-08-07T09:14:58.395Z,41.88
2023-08-07T09:17:30.895Z,41.75
2023-08-07T09:19:58.057Z,42.38
2023-08-07T09:22:25.043Z,41.83
2023-08-07T09:24:52.110Z,41.52
2023-08-07T09:27:19.448Z,41.71
2023-08-07T09:29:47.942Z,41.69
2023-08-07T09:32:15.261Z,41.40
2023-08-07T09:34:43.567Z,41.46
2023-08-07T09:37:11.277Z,41.06
2023-08-07T09:39:38.746Z,41.10
2023-08-07T09:42:06.049Z,41.05
2023-08-07T09:44:39.184Z,40.71
2023-08-07T09:47:24.103Z,40.47
2023-08-07T09:49:55.843Z,40.56
2023-08-07T09:52:23.105Z,40.57
2023-08-07T09:54:50.123Z,40.22
2023-08-07T09:57:18.190Z,40.35
2023-08-07T09:59:51.460Z,40.28
2023-08-07T10:02:19.781Z,40.04
2023-08-07T10:04:47.150Z,39.87
2023-08-07T10:07:16.815Z,39.91
2023-08-07T10:09:44.184Z,39.67
2023-08-07T10:12:11.541Z,39.86
2023-08-07T10:14:38.683Z,39.80
2023-08-07T10:17:06.688Z,39.82
2023-08-07T10:19:33.851Z,39.71
2023-08-07T10:22:01.399Z,39.56
2023-08-07T10:24:29.950Z,39.24
2023-08-07T10:26:58.797Z,39.40
2023-08-07T10:29:27.849Z,39.39
2023-08-07T10:31:58.088Z,39.25
2023-08-07T10:34:25.220Z,39.13
2023-08-07T10:36:52.206Z,38.88
2023-08-07T10:39:19.490Z,39.19
2023-08-07T10:41:48.743Z,39.04
2023-08-07T10:44:23.554Z,38.70
2023-08-07T10:46:53.419Z,38.80
2023-08-07T10:49:41.625Z,38.36
2023-08-07T10:52:14.364Z,38.72
2023-08-07T10:54:51.485Z,38.37
2023-08-07T10:57:20.245Z,38.48
2023-08-07T11:00:01.118Z,38.23
2023-08-07T11:02:31.715Z,38.68
2023-08-07T11:04:59.248Z,38.73
2023-08-07T11:07:31.290Z,38.63
2023-08-07T11:10:00.315Z,38.33
2023-08-07T11:12:30.428Z,38.50
2023-08-07T11:14:58.222Z,38.54
2023-08-07T11:17:30.337Z,38.13
2023-08-07T11:19:57.886Z,38.20
2023-08-07T11:22:24.963Z,38.32
2023-08-07T11:24:52.620Z,38.00
2023-08-07T11:27:22.109Z,38.09
2023-08-07T11:29:50.421Z,38.41
2023-08-07T11:32:17.668Z,38.13
2023-08-07T11:34:52.131Z,38.20
2023-08-07T11:37:19.287Z,38.49
2023-08-07T11:39:46.669Z,38.20
2023-08-07T11:42:14.721Z,38.05
2023-08-07T11:44:42.212Z,38.28
2023-08-07T11:47:11.067Z,38.29
2023-08-07T11:49:41.219Z,38.42
2023-08-07T11:52:09.096Z,37.97
2023-08-07T11:54:36.106Z,37.24
2023-08-07T11:57:03.194Z,37.18
2023-08-07T11:59:30.964Z,36.59
2023-08-07T12:01:58.632Z,36.33
2023-08-07T12:04:25.888Z,35.81
2023-08-07T12:06:57.863Z,34.80
2023-08-07T12:09:27.308Z,34.79
2023-08-07T12:11:59.361Z,33.36
2023-08-07T12:14:37.104Z,32.47
2023-08-07T12:17:05.255Z,32.75
2023-08-07T12:19:40.097Z,31.14
2023-08-07T12:22:15.444Z,30.10
2023-08-07T12:24:44.073Z,30.19
2023-08-07T12:27:11.101Z,29.52
2023-08-07T12:29:38.235Z,28.69
2023-08-07T12:32:08.427Z,27.53
2023-08-07T12:34:36.375Z,27.26
2023-08-07T12:37:24.019Z,26.29
2023-08-07T12:44:50.780Z,25.00
2023-08-07T12:47:17.759Z,24.46
2023-08-07T12:49:47.326Z,24.10
2023-08-07T12:52:16.038Z,23.88
2023-08-07T12:58:58.435Z,23.01
2023-08-07T13:01:26.977Z,22.56
2023-08-07T13:03:54.230Z,22.40
2023-08-07T13:06:21.859Z,22.29
2023-08-07T13:08:48.878Z,22.30
2023-08-07T13:11:15.966Z,22.34
2023-08-07T13:13:45.668Z,22.18
2023-08-07T13:16:13.156Z,21.57
2023-08-07T13:18:40.157Z,21.46
2023-08-07T13:21:07.517Z,21.34
2023-08-07T13:23:37.252Z,20.92
2023-08-07T13:26:04.369Z,20.77
2023-08-07T13:28:31.889Z,20.54
2023-08-07T13:31:02.989Z,20.42
2023-08-07T13:33:32.512Z,20.58
2023-08-07T13:36:01.771Z,20.44
2023-08-07T13:38:29.065Z,20.31
2023-08-07T13:40:56.547Z,20.37
2023-08-07T13:43:23.955Z,20.41
2023-08-07T13:45:52.282Z,20.31
2023-08-07T13:48:22.372Z,20.23
2023-08-07T13:50:49.777Z,20.26
2023-08-07T13:53:17.239Z,20.11
2023-08-07T13:55:45.322Z,19.99
2023-08-07T13:58:12.748Z,19.88
2023-08-07T14:00:41.810Z,19.59
2023-08-07T14:03:14.264Z,19.68
2023-08-07T14:05:41.495Z,19.75
2023-08-07T14:08:15.247Z,20.18
2023-08-07T14:10:44.983Z,19.80
2023-08-07T14:13:13.158Z,19.65
2023-08-07T14:15:40.522Z,19.96
2023-08-07T14:18:33.904Z,19.75
2023-08-07T14:23:49.442Z,19.85
2023-08-07T14:26:17.220Z,19.59
2023-08-07T14:28:46.010Z,19.75
2023-08-07T14:31:13.633Z,19.79
2023-08-07T14:33:41.264Z,19.90
2023-08-07T14:36:08.586Z,19.57
2023-08-07T14:38:37.977Z,19.79
2023-08-07T14:41:05.218Z,19.82
2023-08-07T14:43:32.509Z,19.74
2023-08-07T14:46:00.108Z,19.73
2023-08-07T14:48:27.415Z,19.86
2023-08-07T14:50:54.863Z,20.02
2023-08-07T14:53:22.056Z,20.09
2023-08-07T14:55:49.443Z,19.85
2023-08-07T14:58:16.449Z,20.15
2023-08-07T15:00:43.675Z,20.14
2023-08-07T15:03:11.076Z,20.42
2023-08-07T15:05:38.271Z,20.29
2023-08-07T15:08:05.368Z,20.42
2023-08-07T15:10:32.855Z,20.72
2023-08-07T15:13:00.594Z,20.89
2023-08-07T15:15:28.121Z,20.71
2023-08-07T15:17:55.636Z,21.21
2023-08-07T15:20:23.340Z,21.01
2023-08-07T15:22:50.492Z,20.94
2023-08-07T15:25:21.484Z,21.67
2023-08-07T15:27:51.541Z,21.72
2023-08-07T15:30:22.086Z,21.16
2023-08-07T15:32:49.308Z,21.58
2023-08-07T15:35:17.025Z,21.52
2023-08-07T15:37:44.314Z,21.67
2023-08-07T15:40:12.206Z,21.46
2023-08-07T15:42:39.353Z,21.75
2023-08-07T15:45:07.048Z,21.74
2023-08-07T15:47:34.640Z,22.50
2023-08-07T15:50:01.798Z,22.48
2023-08-07T15:52:31.106Z,22.64
2023-08-07T15:54:58.180Z,23.15
2023-08-07T15:57:26.836Z,23.03
2023-08-07T15:59:54.293Z,23.46
2023-08-07T16:02:21.448Z,23.46
2023-08-07T16:04:48.480Z,23.73
2023-08-07T16:07:15.638Z,24.02
2023-08-07T16:09:42.836Z,23.72
2023-08-07T16:12:10.136Z,24.05
2023-08-07T16:14:39.267Z,24.40
2023-08-07T16:17:07.062Z,24.49
2023-08-07T16:19:36.756Z,24.72
2023-08-07T16:22:04.054Z,24.90
2023-08-07T16:24:31.056Z,25.28
2023-08-07T16:26:58.438Z,25.33
2023-08-07T16:29:26.703Z,26.01
2023-08-07T16:31:54.602Z,25.92
2023-08-07T16:34:21.694Z,26.21
2023-08-07T16:36:48.795Z,26.43
2023-08-07T16:39:15.930Z,27.20
2023-08-07T16:41:46.808Z,27.12
2023-08-07T16:44:14.084Z,27.83
2023-08-07T16:46:41.414Z,27.88
2023-08-07T16:49:08.508Z,28.37
2023-08-07T16:51:35.719Z,28.71
2023-08-07T16:54:03.187Z,29.42
2023-08-07T16:56:30.391Z,29.95
2023-08-07T16:58:59.100Z,30.05
2023-08-07T17:01:26.754Z,30.58
2023-08-07T17:03:53.872Z,30.93
2023-08-07T17:06:21.087Z,31.75
2023-08-07T17:08:50.944Z,32.08
2023-08-07T17:11:18.206Z,32.83
2023-08-07T17:13:45.555Z,33.33
2023-08-07T17:16:12.618Z,33.74
2023-08-07T17:18:39.817Z,34.89
2023-08-07T17:21:06.864Z,35.30
2023-08-07T17:23:33.888Z,35.59
2023-08-07T17:26:02.711Z,36.56
2023-08-07T17:28:30.812Z,36.79
2023-08-07T17:30:58.570Z,37.21
2023-08-07T17:33:25.753Z,37.91
2023-08-07T17:35:52.835Z,38.19
2023-08-07T17:38:20.113Z,38.57
2023-08-07T17:40:48.901Z,39.00
2023-08-07T17:43:16.839Z,39.17
2023-08-07T17:45:43.888Z,39.55
2023-08-07T17:48:11.051Z,39.98
2023-08-07T17:50:38.505Z,40.14
2023-08-07T17:53:05.759Z,40.51
2023-08-07T17:55:32.964Z,40.88
2023-08-07T17:58:00.042Z,41.16
2023-08-07T18:00:27.338Z,41.27
2023-08-07T18:02:55.049Z,41.70
2023-08-07T18:05:23.597Z,42.05
2023-08-07T18:07:51.895Z,42.21
2023-08-07T18:10:19.090Z,42.57
2023-08-07T18:12:46.188Z,42.56
2023-08-07T18:15:13.270Z,42.83
2023-08-07T18:17:40.353Z,43.02
2023-08-07T18:20:08.854Z,43.42
2023-08-07T18:22:35.808Z,43.66
2023-08-07T18:25:02.807Z,43.88
2023-08-07T18:27:31.267Z,44.35
2023-08-07T18:29:58.870Z,44.46
2023-08-07T18:32:26.050Z,44.70
2023-08-07T18:34:53.380Z,44.61
2023-08-07T18:37:21.170Z,45.09
2023-08-07T18:39:48.142Z,45.29
2023-08-07T18:42:15.162Z,45.25
2023-08-07T18:44:42.195Z,45.62
2023-08-07T18:47:09.231Z,45.76
2023-08-07T18:49:36.209Z,46.08
2023-08-07T18:52:05.549Z,46.08
2023-08-07T18:54:32.844Z,46.35
2023-08-07T18:57:01.263Z,46.26
2023-08-07T18:59:30.374Z,46.37
2023-08-07T19:01:57.572Z,46.77
2023-08-07T19:04:24.560Z,46.87
2023-08-07T19:06:51.925Z,47.15
2023-08-07T19:09:19.036Z,46.96
2023-08-07T19:11:46.204Z,47.38
2023-08-07T19:14:13.172Z,47.45
2023-08-07T19:17:08.717Z,47.88
2023-08-07T19:19:36.708Z,47.70
2023-08-07T19:22:04.939Z,47.73
2023-08-07T19:24:32.039Z,47.73
2023-08-07T19:26:59.560Z,47.98
2023-08-07T19:29:26.975Z,48.18
2023-08-07T19:31:54.033Z,48.16
2023-08-07T19:34:21.177Z,48.21
2023-08-07T19:36:50.993Z,48.50
2023-08-07T19:39:18.913Z,48.49
2023-08-07T19:41:50.479Z,49.03
2023-08-07T19:44:17.499Z,48.82
2023-08-07T19:46:44.522Z,48.78
2023-08-07T19:49:13.668Z,48.92
2023-08-07T19:51:40.718Z,49.28
2023-08-07T19:54:08.337Z,49.11
2023-08-07T19:56:36.963Z,49.26
2023-08-07T19:59:09.447Z,49.33
2023-08-07T20:01:36.885Z,49.22
2023-08-07T20:04:05.280Z,49.30
2023-08-07T20:06:38.324Z,49.49
2023-08-07T20:09:12.898Z,49.40
2023-08-07T20:11:40.003Z,49.50
2023-08-07T20:14:07.171Z,49.52
2023-08-07T20:16:34.634Z,49.50
2023-08-07T20:19:01.853Z,49.70
2023-08-07T20:21:29.254Z,49.75
2023-08-07T20:23:56.479Z,49.92
2023-08-07T20:26:25.323Z,50.02
2023-08-07T20:28:52.453Z,50.11
2023-08-07T20:31:19.701Z,49.85
2023-08-07T20:33:46.814Z,49.89
2023-08-07T20:36:14.256Z,50.11
2023-08-07T20:38:41.244Z,50.11
2023-08-07T20:41:09.553Z,50.22
2023-08-07T20:43:36.552Z,50.08
2023-08-07T20:46:03.710Z,50.39
2023-08-07T20:48:30.780Z,50.21
2023-08-07T20:50:58.162Z,50.35
2023-08-07T20:53:25.193Z,50.48
2023-08-07T20:55:52.213Z,50.41
2023-08-07T20:58:19.314Z,50.51
2023-08-07T21:00:46.302Z,50.57
2023-08-07T21:03:13.249Z,50.49
2023-08-07T21:05:40.332Z,50.66
2023-08-07T21:08:07.389Z,50.74
2023-08-07T21:10:34.457Z,50.68
2023-08-07T21:13:01.487Z,50.68
2023-08-07T21:15:28.639Z,50.87
2023-08-07T21:17:58.163Z,50.72
2023-08-07T21:20:25.938Z,51.01
2023-08-07T21:22:54.234Z,50.77
2023-08-07T21:25:21.804Z,50.84
2023-08-07T21:27:49.007Z,50.92
2023-08-07T21:30:16.111Z,51.00
2023-08-07T21:32:45.282Z,51.03
2023-08-07T21:35:12.916Z,51.00
2023-08-07T21:37:41.031Z,51.16
2023-08-07T21:40:10.215Z,51.16
2023-08-07T21:42:37.316Z,51.18
2023-08-07T21:45:06.837Z,51.13
2023-08-07T21:47:34.431Z,51.33
2023-08-07T21:50:01.521Z,51.27
2023-08-07T21:52:29.169Z,51.47
2023-08-07T21:54:59.113Z,51.52
2023-08-07T21:57:26.372Z,51.46
2023-08-07T21:59:53.391Z,51.48
2023-08-07T22:02:20.376Z,51.37
2023-08-07T22:04:47.479Z,51.60
2023-08-07T22:07:14.493Z,51.52
2023-08-07T22:09:41.744Z,51.49
2023-08-07T22:12:09.120Z,51.62
2023-08-07T22:14:36.180Z,51.76
2023-08-07T22:17:03.385Z,51.78
2023-08-07T22:19:30.407Z,51.75
2023-08-07T22:21:57.743Z,51.96
2023-08-07T22:24:25.365Z,52.14
2023-08-07T22:26:52.439Z,52.21
2023-08-07T22:29:19.760Z,52.36
2023-08-07T22:31:46.833Z,52.40
2023-08-07T22:34:14.021Z,52.57
2023-08-07T22:36:41.230Z,52.70
2023-08-07T22:39:08.181Z,52.86
2023-08-07T22:41:35.304Z,53.02
2023-08-07T22:44:02.365Z,53.01
2023-08-07T22:46:29.491Z,53.19
2023-08-07T22:48:56.695Z,53.19
2023-08-07T22:51:25.033Z,53.42
2023-08-07T22:53:52.221Z,53.41
2023-08-07T22:56:19.228Z,53.48
2023-08-07T22:58:47.556Z,53.73
2023-08-07T23:01:14.662Z,53.84
2023-08-07T23:03:43.441Z,53.84
2023-08-07T23:06:11.421Z,53.69
2023-08-07T23:08:38.420Z,53.80
2023-08-07T23:11:05.704Z,54.12
2023-08-07T23:13:32.792Z,54.08
2023-08-07T23:15:59.879Z,54.25
2023-08-07T23:18:27.344Z,54.24
2023-08-07T23:20:54.415Z,54.31
2023-08-07T23:23:21.517Z,54.31
2023-08-07T23:25:48.509Z,54.50
2023-08-07T23:28:15.477Z,54.46
2023-08-07T23:30:42.572Z,54.52
2023-08-07T23:33:09.721Z,54.48
2023-08-07T23:35:36.682Z,54.52
2023-08-07T23:38:04.620Z,54.57
2023-08-07T23:40:31.620Z,54.76
2023-08-07T23:42:58.608Z,54.71
2023-08-07T23:45:25.630Z,54.83
2023-08-07T23:47:52.633Z,54.88
2023-08-07T23:50:19.829Z,54.83
2023-08-07T23:52:46.974Z,54.74
2023-08-07T23:55:13.995Z,54.94
2023-08-07T23:57:41.215Z,54.75
